Terminal Aerodrome Forecast
Issued by NWS

Home | Current Version | Previous Version | Graphics & Text | Print | Product List | Glossary On
Versions: 1 2 3 4 5 6 7 8 9 10 11 12 13 14 15 16
000
FTUS42 KMHX 152348
TAFISO
TAF
KISO 152348Z 1600/1624 04005KT 5SM -RA BKN010
     FM160500 04006KT P6SM VCSH OVC035
     FM161200 06008KT P6SM VCSH OVC050
     FM161500 08011G17KT P6SM OVC050
      AMD LTD TO CLD VIS AND WIND=

USA.gov is the U.S. government's official web portal to all federal, state and local government web resources and services.